METAR Data
IDs: Format: Raw Decoded Include TAF

Data at: 1510 UTC 21 Apr 2021

METAR for:KRDK (Red Oak Muni, IA, US)
Text:KRDK 211455Z AUTO 36014G20KT 10SM FEW019 BKN024 OVC045 02/M03 A3027 RMK AO2
Temperature: 2.0°C ( 36°F)
Dewpoint: -3.0°C ( 27°F) [RH = 69%]
Pressure (altimeter):30.27 inches Hg (1025.1 mb)
Winds:from the N (360 degrees) at 16 MPH (14 knots; 7.2 m/s) gusting to 23 MPH (20 knots; 10.3 m/s)
Visibility:10 or more sm (16+ km)
Ceiling:2400 feet AGL
Clouds: few clouds at 1900 feet AGL, broken clouds at 2400 feet AGL, overcast cloud deck at 4500 feet AGL
QC Flag:automated observation with no human augmentation